Time;durP1;ratioP1;P1;durP2;ratioP2;P2;SDS_P1;SDS_P2;PMS_P1;PMS_P2;Temp;Humidity;BMP_temperature;BMP_pressure;BME280_temperature;BME280_humidity;BME280_pressure;Samples;Min_cycle;Max_cycle;Signal;HPM_P1;HPM_P2
2023/09/08 00:02:26;;;;;;;12.23;8.50;;;21.20;99.90;;;;;;4907966;29;20079;-59
2023/09/08 00:04:54;;;;;;;12.10;8.57;;;21.20;99.90;;;;;;4908659;29;20120;-59
2023/09/08 00:07:20;;;;;;;9.82;8.27;;;21.20;99.90;;;;;;4910835;29;20044;-60
2023/09/08 00:09:47;;;;;;;10.43;7.18;;;21.20;99.90;;;;;;4911291;29;20047;-59
2023/09/08 00:12:14;;;;;;;8.93;6.38;;;21.30;99.90;;;;;;4908211;29;20052;-59
2023/09/08 00:14:41;;;;;;;8.98;6.43;;;21.20;99.90;;;;;;4908297;29;20555;-59
2023/09/08 00:17:08;;;;;;;9.75;6.35;;;21.20;99.90;;;;;;4908662;29;20123;-59
2023/09/08 00:19:35;;;;;;;6.65;4.13;;;21.20;99.90;;;;;;4907347;29;20084;-58
2023/09/08 00:22:05;;;;;;;10.63;4.88;;;21.10;99.90;;;;;;4906334;29;20057;-57
2023/09/08 00:24:33;;;;;;;7.45;4.47;;;21.10;99.90;;;;;;4907426;29;20055;-56
2023/09/08 00:27:00;;;;;;;5.15;3.72;;;21.00;99.90;;;;;;4907184;29;20066;-58
2023/09/08 00:29:27;;;;;;;8.75;3.95;;;21.00;99.90;;;;;;4910620;29;20072;-57
2023/09/08 00:31:54;;;;;;;7.07;4.00;;;21.00;99.90;;;;;;4910546;29;20370;-59
2023/09/08 00:34:21;;;;;;;4.82;3.83;;;21.00;99.90;;;;;;4907867;29;20078;-60
2023/09/08 00:36:48;;;;;;;7.72;4.03;;;21.00;99.90;;;;;;4909812;29;20096;-59
2023/09/08 00:39:14;;;;;;;7.15;4.40;;;21.00;99.90;;;;;;4898372;29;20104;-59
2023/09/08 00:41:41;;;;;;;5.32;4.07;;;21.00;99.90;;;;;;4909841;29;20044;-59
2023/09/08 00:44:08;;;;;;;8.43;4.57;;;20.90;99.90;;;;;;4906958;29;20556;-58
2023/09/08 00:46:35;;;;;;;7.45;4.03;;;20.90;99.90;;;;;;4909948;29;20058;-59
2023/09/08 00:49:02;;;;;;;5.55;3.70;;;20.90;99.90;;;;;;4891575;29;20257;-59
2023/09/08 00:51:29;;;;;;;5.72;3.85;;;21.00;99.90;;;;;;4912853;29;20534;-57
2023/09/08 00:53:56;;;;;;;10.13;4.45;;;20.90;99.90;;;;;;4895024;29;20120;-59
2023/09/08 00:56:23;;;;;;;7.45;5.03;;;20.80;99.90;;;;;;4893783;29;20107;-59
2023/09/08 00:58:50;;;;;;;7.47;5.30;;;20.90;99.90;;;;;;4901469;29;20104;-58
2023/09/08 01:01:17;;;;;;;7.35;5.63;;;20.90;99.90;;;;;;4908113;29;20056;-59
2023/09/08 01:03:44;;;;;;;9.73;5.68;;;20.90;99.90;;;;;;4906315;29;20385;-58
2023/09/08 01:06:11;;;;;;;6.78;5.05;;;20.90;99.90;;;;;;4902840;29;20052;-57
2023/09/08 01:08:38;;;;;;;8.70;5.15;;;20.90;99.90;;;;;;4905596;29;20048;-58
2023/09/08 01:11:05;;;;;;;8.85;5.10;;;20.80;99.90;;;;;;4891418;29;20107;-58
2023/09/08 01:13:34;;;;;;;10.32;5.57;;;20.80;99.90;;;;;;4892027;29;20052;-59
2023/09/08 01:16:01;;;;;;;6.80;4.90;;;20.90;99.90;;;;;;4906765;29;20088;-59
2023/09/08 01:18:28;;;;;;;8.63;5.25;;;20.80;99.90;;;;;;4903887;29;20555;-58
2023/09/08 01:21:14;;;;;;;10.40;5.47;;;20.80;99.90;;;;;;4907166;29;20409;-58
2023/09/08 01:24:20;;;;;;;11.43;5.85;;;20.80;99.90;;;;;;4910985;29;20091;-58
2023/09/08 01:26:46;;;;;;;9.98;5.57;;;20.70;99.90;;;;;;4893351;29;20052;-58
2023/09/08 01:29:14;;;;;;;8.98;4.60;;;20.80;99.90;;;;;;4887603;29;20100;-59
2023/09/08 01:31:41;;;;;;;5.28;4.30;;;20.70;99.90;;;;;;4889890;29;20048;-57
2023/09/08 01:34:08;;;;;;;7.13;4.57;;;20.70;99.90;;;;;;4888741;29;20052;-58
2023/09/08 01:36:35;;;;;;;10.68;4.97;;;20.70;99.90;;;;;;4890718;29;20131;-58
2023/09/08 01:39:02;;;;;;;7.97;4.05;;;20.70;99.90;;;;;;4910620;29;20417;-57
2023/09/08 01:41:31;;;;;;;6.55;3.97;;;20.70;99.90;;;;;;4910301;29;20052;-58
2023/09/08 01:44:07;;;;;;;5.65;3.83;;;20.60;99.90;;;;;;4717245;29;10001382;-57
2023/09/08 01:46:35;;;;;;;6.88;3.13;;;20.60;99.90;;;;;;4899187;29;20288;-58
2023/09/08 01:49:02;;;;;;;8.77;3.38;;;20.60;99.90;;;;;;4907148;29;20116;-57
2023/09/08 01:51:29;;;;;;;4.65;3.20;;;20.60;99.90;;;;;;4906946;29;20111;-57
2023/09/08 01:53:55;;;;;;;5.07;3.17;;;20.50;99.90;;;;;;4910510;29;20071;-58
2023/09/08 01:56:22;;;;;;;5.38;3.50;;;20.60;99.90;;;;;;4908993;29;20407;-58
2023/09/08 01:58:49;;;;;;;5.38;3.80;;;20.60;99.90;;;;;;4908787;29;20139;-58
2023/09/08 02:01:16;;;;;;;9.90;4.40;;;20.60;99.90;;;;;;4907031;29;20058;-58
2023/09/08 02:03:43;;;;;;;9.52;4.10;;;20.60;99.90;;;;;;4906853;29;20106;-57
2023/09/08 02:06:10;;;;;;;5.32;3.92;;;20.50;99.90;;;;;;4907849;29;20465;-58
2023/09/08 02:08:37;;;;;;;7.35;3.90;;;20.40;99.90;;;;;;4907225;29;20119;-58
2023/09/08 02:11:04;;;;;;;9.48;4.32;;;20.40;99.90;;;;;;4905500;29;20513;-59
2023/09/08 02:13:30;;;;;;;19.42;4.90;;;20.40;99.90;;;;;;4898821;29;20120;-59
2023/09/08 02:15:57;;;;;;;6.38;3.40;;;20.40;99.90;;;;;;4908884;29;20045;-58
2023/09/08 02:18:25;;;;;;;7.03;3.78;;;20.40;99.90;;;;;;4910472;29;20048;-58
2023/09/08 02:20:52;;;;;;;6.57;4.20;;;20.40;99.90;;;;;;4908133;29;20428;-58
2023/09/08 02:23:19;;;;;;;5.95;3.85;;;20.50;99.90;;;;;;4906374;29;20059;-58
2023/09/08 02:25:46;;;;;;;7.85;4.05;;;20.50;99.90;;;;;;4906026;29;20083;-59
2023/09/08 02:28:12;;;;;;;10.20;4.88;;;20.50;99.90;;;;;;4909597;29;20103;-59
2023/09/08 02:30:39;;;;;;;8.00;4.65;;;20.40;99.90;;;;;;4902122;29;20111;-59
2023/09/08 02:33:06;;;;;;;7.75;5.40;;;20.40;99.90;;;;;;4897232;29;20049;-59
2023/09/08 02:35:37;;;;;;;9.50;5.68;;;20.40;99.90;;;;;;4911425;29;20099;-59
2023/09/08 02:38:04;;;;;;;6.45;4.82;;;20.50;99.90;;;;;;4902063;29;20509;-59
2023/09/08 02:40:33;;;;;;;7.70;4.65;;;20.40;99.90;;;;;;4907768;29;20058;-57
2023/09/08 02:43:01;;;;;;;6.82;4.93;;;20.40;99.90;;;;;;4905943;29;20087;-57
2023/09/08 02:45:28;;;;;;;11.05;5.82;;;20.40;99.90;;;;;;4905952;29;20109;-58
2023/09/08 02:47:55;;;;;;;6.30;5.05;;;20.30;99.90;;;;;;4890103;29;20148;-57
2023/09/08 02:50:22;;;;;;;8.80;5.70;;;20.30;99.90;;;;;;4904681;29;20063;-56
2023/09/08 02:52:49;;;;;;;11.23;5.95;;;20.30;99.90;;;;;;4910359;29;20059;-58
2023/09/08 02:55:16;;;;;;;7.80;5.30;;;20.40;99.90;;;;;;4906407;29;20100;-58
2023/09/08 02:57:43;;;;;;;9.63;5.85;;;20.40;99.90;;;;;;4907150;29;20469;-57
2023/09/08 03:00:10;;;;;;;8.82;5.60;;;20.40;99.90;;;;;;4890207;29;20048;-58
2023/09/08 03:02:37;;;;;;;7.05;4.55;;;20.50;99.90;;;;;;4885919;29;20041;-57
2023/09/08 03:05:05;;;;;;;6.75;5.63;;;20.40;99.90;;;;;;4885814;29;20048;-58
2023/09/08 03:07:33;;;;;;;7.00;5.30;;;20.40;99.90;;;;;;4908710;29;20108;-58
2023/09/08 03:10:00;;;;;;;8.07;5.18;;;20.30;99.90;;;;;;4903323;29;20044;-60
2023/09/08 03:12:27;;;;;;;6.97;5.80;;;20.30;99.90;;;;;;4904360;29;20420;-59
2023/09/08 03:14:54;;;;;;;6.88;5.30;;;20.30;99.90;;;;;;4900025;29;20076;-58
2023/09/08 03:17:21;;;;;;;7.18;5.68;;;20.30;99.90;;;;;;4912364;29;20089;-58
2023/09/08 03:19:48;;;;;;;7.68;5.53;;;20.30;99.90;;;;;;4908733;29;20052;-58
2023/09/08 03:22:15;;;;;;;9.68;5.30;;;20.30;99.90;;;;;;4911251;29;20098;-57
2023/09/08 03:24:42;;;;;;;8.00;5.57;;;20.40;99.90;;;;;;4907485;29;20048;-59
2023/09/08 03:27:09;;;;;;;5.93;4.75;;;20.40;99.90;;;;;;4910827;29;20114;-58
2023/09/08 03:29:36;;;;;;;9.20;6.05;;;20.30;99.90;;;;;;4908441;29;20048;-58
2023/09/08 03:32:03;;;;;;;7.22;4.97;;;20.30;99.90;;;;;;4907863;29;20103;-57
2023/09/08 03:34:30;;;;;;;8.13;5.20;;;20.30;99.90;;;;;;4909066;29;20078;-59
2023/09/08 03:36:57;;;;;;;9.32;4.63;;;20.30;99.90;;;;;;4906306;29;20048;-59
2023/09/08 03:39:24;;;;;;;7.75;5.85;;;20.20;99.90;;;;;;4909493;29;20049;-59
2023/09/08 03:41:51;;;;;;;7.10;4.90;;;20.10;99.90;;;;;;4907533;29;20064;-59
2023/09/08 03:44:18;;;;;;;9.43;5.35;;;20.10;99.90;;;;;;4903881;29;20056;-58
2023/09/08 03:46:45;;;;;;;8.80;4.10;;;20.10;99.90;;;;;;4902533;29;20056;-59
2023/09/08 03:49:12;;;;;;;10.00;4.28;;;20.20;99.90;;;;;;4908848;29;20044;-59
2023/09/08 03:51:39;;;;;;;4.93;3.97;;;20.20;99.90;;;;;;4909489;29;20055;-59
2023/09/08 03:54:06;;;;;;;12.25;5.40;;;20.20;99.90;;;;;;4892432;29;20044;-58
2023/09/08 03:56:33;;;;;;;5.22;3.72;;;20.20;99.90;;;;;;4907106;29;20048;-58
2023/09/08 03:58:59;;;;;;;6.43;3.90;;;20.10;99.90;;;;;;4908160;29;20135;-59
2023/09/08 04:01:26;;;;;;;4.95;3.45;;;20.10;99.90;;;;;;4898900;29;20412;-59
2023/09/08 04:03:53;;;;;;;7.28;3.70;;;20.10;99.90;;;;;;4906922;29;20048;-60
2023/09/08 04:06:20;;;;;;;7.25;4.07;;;20.10;99.90;;;;;;4907610;29;20048;-59
2023/09/08 04:08:50;;;;;;;5.25;3.50;;;20.00;99.90;;;;;;4912705;29;20052;-59
2023/09/08 04:11:17;;;;;;;5.22;4.20;;;20.00;99.90;;;;;;4909077;29;20491;-59
2023/09/08 04:13:44;;;;;;;5.35;3.47;;;20.00;99.90;;;;;;4903021;29;20392;-60
2023/09/08 04:16:11;;;;;;;5.32;3.50;;;20.00;99.90;;;;;;4900897;29;20048;-62
2023/09/08 04:18:38;;;;;;;4.85;3.05;;;20.00;99.90;;;;;;4910505;29;20058;-60
2023/09/08 04:21:07;;;;;;;6.20;3.40;;;20.00;99.90;;;;;;4901427;29;20087;-59
2023/09/08 04:23:34;;;;;;;5.38;3.35;;;20.00;99.90;;;;;;4909505;29;20084;-59
2023/09/08 04:26:01;;;;;;;7.70;3.10;;;20.00;99.90;;;;;;4909530;29;20103;-59
2023/09/08 04:28:28;;;;;;;3.95;2.95;;;20.00;99.90;;;;;;4901707;29;20053;-60
2023/09/08 04:30:55;;;;;;;3.50;2.83;;;20.00;99.90;;;;;;4908781;29;20112;-59
2023/09/08 04:33:23;;;;;;;8.18;3.60;;;20.00;99.90;;;;;;4911189;29;20044;-59
2023/09/08 04:35:50;;;;;;;8.07;3.75;;;20.00;99.90;;;;;;4881119;29;20048;-59
2023/09/08 04:38:17;;;;;;;5.18;2.90;;;20.00;99.90;;;;;;4903408;29;20100;-58
2023/09/08 04:40:45;;;;;;;5.72;3.35;;;19.90;99.90;;;;;;4907203;29;20045;-59
2023/09/08 04:43:12;;;;;;;4.85;3.45;;;19.90;99.90;;;;;;4884286;29;20050;-59
2023/09/08 04:45:39;;;;;;;9.45;3.25;;;19.90;99.90;;;;;;4910820;29;20044;-58
2023/09/08 04:48:06;;;;;;;5.88;3.38;;;19.90;99.90;;;;;;4908685;29;20052;-59
2023/09/08 04:50:33;;;;;;;4.97;3.40;;;19.80;99.90;;;;;;4909559;29;20103;-59
2023/09/08 04:53:00;;;;;;;4.63;3.30;;;19.90;99.90;;;;;;4907052;29;20052;-62
2023/09/08 04:55:27;;;;;;;3.85;3.10;;;19.80;99.90;;;;;;4902745;29;20063;-58
2023/09/08 04:57:53;;;;;;;6.68;4.00;;;19.70;99.90;;;;;;4909099;29;20483;-58
2023/09/08 05:00:20;;;;;;;10.52;4.05;;;19.70;99.90;;;;;;4912361;29;20385;-59
2023/09/08 05:02:47;;;;;;;6.68;4.00;;;19.70;99.90;;;;;;4906012;29;20060;-57
2023/09/08 05:05:14;;;;;;;8.85;4.25;;;19.70;99.90;;;;;;4900457;29;20040;-59
2023/09/08 05:07:41;;;;;;;6.05;3.92;;;19.70;99.90;;;;;;4910203;29;20107;-59
2023/09/08 05:10:08;;;;;;;13.18;4.68;;;19.70;99.90;;;;;;4901505;29;20687;-59
2023/09/08 05:12:35;;;;;;;7.43;4.68;;;19.70;99.90;;;;;;4897860;29;20151;-58
2023/09/08 05:15:06;;;;;;;7.05;5.07;;;19.80;99.90;;;;;;4907160;29;20052;-58
2023/09/08 05:17:33;;;;;;;7.72;4.00;;;19.80;99.90;;;;;;4906161;29;20052;-58
2023/09/08 05:20:01;;;;;;;8.20;4.55;;;19.90;99.90;;;;;;4907609;29;20135;-59
2023/09/08 05:22:28;;;;;;;8.63;4.85;;;19.80;99.90;;;;;;4900287;29;20530;-58
2023/09/08 05:24:54;;;;;;;6.80;3.53;;;19.80;99.90;;;;;;4907666;29;20048;-59
2023/09/08 05:27:21;;;;;;;7.82;4.13;;;19.90;99.90;;;;;;4905068;29;20563;-58
2023/09/08 05:29:48;;;;;;;9.77;4.95;;;19.90;99.90;;;;;;4910648;29;20200;-59
2023/09/08 05:32:15;;;;;;;6.40;3.95;;;19.90;99.90;;;;;;4883573;29;20048;-58
2023/09/08 05:34:42;;;;;;;6.72;4.07;;;19.80;99.90;;;;;;4894634;29;20104;-58
2023/09/08 05:37:09;;;;;;;4.90;3.83;;;19.70;99.90;;;;;;4910563;29;20096;-59
2023/09/08 05:39:36;;;;;;;9.52;4.45;;;19.70;99.90;;;;;;4903989;29;20052;-58
2023/09/08 05:42:03;;;;;;;5.82;3.28;;;19.80;99.90;;;;;;4906661;29;20107;-59
2023/09/08 05:44:30;;;;;;;9.95;3.63;;;19.80;99.90;;;;;;4890574;29;20048;-59
2023/09/08 05:46:57;;;;;;;16.67;4.90;;;19.90;99.90;;;;;;4902633;29;20048;-59
2023/09/08 05:49:23;;;;;;;9.40;3.95;;;19.90;99.90;;;;;;4906239;29;20167;-59
2023/09/08 05:51:50;;;;;;;5.55;4.28;;;19.90;99.90;;;;;;4895600;29;20665;-60
2023/09/08 05:54:17;;;;;;;10.10;4.07;;;20.00;99.90;;;;;;4904706;29;20056;-59
2023/09/08 05:56:44;;;;;;;4.60;3.17;;;20.00;99.90;;;;;;4907729;29;20048;-56
2023/09/08 05:59:11;;;;;;;7.20;3.65;;;20.10;99.90;;;;;;4896550;29;20214;-57
2023/09/08 06:01:38;;;;;;;17.05;5.68;;;20.10;99.90;;;;;;4905119;29;20056;-55
2023/09/08 06:04:05;;;;;;;15.75;4.57;;;20.10;99.90;;;;;;4902682;29;20054;-56
2023/09/08 06:06:32;;;;;;;12.57;4.15;;;20.20;99.90;;;;;;4886389;29;20052;-54
2023/09/08 06:08:59;;;;;;;7.30;3.42;;;20.20;99.90;;;;;;4894451;29;20229;-56
2023/09/08 06:11:26;;;;;;;12.75;4.70;;;20.20;99.90;;;;;;4906839;29;20052;-54
2023/09/08 06:13:58;;;;;;;7.78;4.03;;;20.30;99.90;;;;;;4909480;29;20048;-58
2023/09/08 06:16:30;;;;;;;6.22;3.47;;;20.40;99.90;;;;;;4885520;29;20068;-62
2023/09/08 06:18:57;;;;;;;5.75;4.10;;;20.40;99.90;;;;;;4906297;29;20730;-57
2023/09/08 06:21:24;;;;;;;5.47;4.50;;;20.40;99.90;;;;;;4904566;29;20048;-58
2023/09/08 06:23:51;;;;;;;6.65;3.90;;;20.40;99.90;;;;;;4898074;29;20060;-58
2023/09/08 06:26:18;;;;;;;6.63;3.85;;;20.40;99.90;;;;;;4883028;29;20484;-57
2023/09/08 06:28:45;;;;;;;9.10;4.18;;;20.50;99.90;;;;;;4904985;29;20099;-59
2023/09/08 06:31:11;;;;;;;9.20;4.20;;;20.50;99.90;;;;;;4904851;29;20048;-59
2023/09/08 06:33:38;;;;;;;5.43;4.07;;;20.50;99.90;;;;;;4893099;29;20054;-59
2023/09/08 06:36:06;;;;;;;14.02;4.20;;;20.60;99.90;;;;;;4904172;29;20564;-59
2023/09/08 06:38:34;;;;;;;7.32;3.50;;;20.70;99.90;;;;;;4891919;29;20522;-60
2023/09/08 06:41:09;;;;;;;6.10;3.50;;;20.80;99.90;;;;;;4900445;29;20129;-59
2023/09/08 06:43:36;;;;;;;8.73;4.80;;;20.90;99.90;;;;;;4899238;29;20044;-59
2023/09/08 06:46:03;;;;;;;8.30;3.75;;;20.90;99.90;;;;;;4898933;29;20052;-59
2023/09/08 06:48:30;;;;;;;15.93;4.68;;;21.00;99.90;;;;;;4909129;29;20403;-59
2023/09/08 06:51:00;;;;;;;11.05;5.00;;;21.10;99.90;;;;;;4565713;29;10000226;-59
2023/09/08 06:53:27;;;;;;;5.95;4.35;;;21.10;99.90;;;;;;4901991;29;20072;-59
2023/09/08 06:55:54;;;;;;;13.90;5.00;;;21.20;99.90;;;;;;4882086;29;20059;-70
2023/09/08 06:58:21;;;;;;;9.30;4.40;;;21.20;99.90;;;;;;4887626;29;20138;-59
2023/09/08 07:00:49;;;;;;;9.65;4.50;;;21.30;99.90;;;;;;4902353;29;20080;-57
2023/09/08 07:03:16;;;;;;;6.30;3.88;;;21.30;99.90;;;;;;4905563;29;20088;-60
2023/09/08 07:05:44;;;;;;;8.10;3.78;;;21.40;99.90;;;;;;4882832;29;20049;-57
2023/09/08 07:08:11;;;;;;;7.03;4.40;;;21.50;99.90;;;;;;4905430;29;20379;-59
2023/09/08 07:10:38;;;;;;;10.02;3.70;;;21.60;99.90;;;;;;4904974;29;20044;-57
2023/09/08 07:13:05;;;;;;;14.68;4.10;;;21.60;99.90;;;;;;4901858;29;20107;-57
2023/09/08 07:15:31;;;;;;;9.40;4.22;;;21.70;99.90;;;;;;4902846;29;20055;-57
2023/09/08 07:17:58;;;;;;;8.32;4.28;;;21.70;99.90;;;;;;4905657;29;20084;-60
2023/09/08 07:20:25;;;;;;;6.47;4.22;;;21.80;99.90;;;;;;4903171;29;20539;-59
2023/09/08 07:22:52;;;;;;;10.65;4.28;;;21.80;99.90;;;;;;4887339;29;20056;-58
2023/09/08 07:25:19;;;;;;;9.57;4.70;;;22.00;99.90;;;;;;4901660;29;20056;-59
2023/09/08 07:27:46;;;;;;;8.05;3.47;;;22.00;99.90;;;;;;4904889;29;20398;-58
2023/09/08 07:30:13;;;;;;;9.50;3.72;;;22.10;99.90;;;;;;4890783;29;20059;-58
2023/09/08 07:32:40;;;;;;;6.43;4.00;;;22.10;99.90;;;;;;4906447;29;20083;-59
2023/09/08 07:35:13;;;;;;;5.13;3.75;;;22.20;99.90;;;;;;4906350;29;20047;-57
2023/09/08 07:37:41;;;;;;;11.40;4.22;;;22.20;99.90;;;;;;4897464;29;20485;-57
2023/09/08 07:40:09;;;;;;;6.13;3.95;;;22.30;99.90;;;;;;4892278;29;20238;-58
2023/09/08 07:42:36;;;;;;;10.60;4.88;;;22.30;99.90;;;;;;4905170;29;20051;-58
2023/09/08 07:45:04;;;;;;;10.30;4.78;;;22.30;99.90;;;;;;4906384;29;20053;-57
2023/09/08 07:47:30;;;;;;;9.48;3.53;;;22.40;99.90;;;;;;4904529;29;20324;-58
2023/09/08 07:50:23;;;;;;;13.02;4.40;;;22.40;99.90;;;;;;4890181;29;20056;-57
2023/09/08 07:52:51;;;;;;;8.65;4.57;;;22.50;99.90;;;;;;4901967;29;20052;-57
2023/09/08 07:55:18;;;;;;;8.52;4.15;;;22.50;99.90;;;;;;4907475;29;20064;-55
2023/09/08 07:57:48;;;;;;;6.80;3.83;;;22.50;99.90;;;;;;4908077;29;20500;-57
2023/09/08 08:00:15;;;;;;;10.77;4.97;;;22.60;99.90;;;;;;4905946;29;20531;-57
2023/09/08 08:02:47;;;;;;;6.75;4.32;;;22.70;99.90;;;;;;4898660;29;20112;-56
2023/09/08 08:05:15;;;;;;;7.72;4.90;;;22.90;99.90;;;;;;4907949;29;20412;-58
2023/09/08 08:07:42;;;;;;;10.50;4.93;;;22.90;99.90;;;;;;4904928;29;20056;-57
2023/09/08 08:10:10;;;;;;;8.15;4.72;;;23.00;99.90;;;;;;4888357;29;20127;-58
2023/09/08 08:12:37;;;;;;;8.40;4.05;;;23.10;99.90;;;;;;4902662;29;20060;-57
2023/09/08 08:15:04;;;;;;;18.48;5.63;;;23.20;99.90;;;;;;4908617;29;20063;-57
2023/09/08 08:17:31;;;;;;;13.63;5.80;;;23.30;99.90;;;;;;4899679;29;20204;-55
2023/09/08 08:19:59;;;;;;;10.98;4.63;;;23.30;99.90;;;;;;4907230;29;20062;-57
2023/09/08 08:22:25;;;;;;;14.73;5.28;;;23.40;99.90;;;;;;4911040;29;20173;-58
2023/09/08 08:24:52;;;;;;;9.10;5.13;;;23.40;99.90;;;;;;4904786;29;20056;-54
2023/09/08 08:27:19;;;;;;;8.68;4.03;;;23.50;99.90;;;;;;4908151;29;20504;-57
2023/09/08 08:29:46;;;;;;;8.40;4.55;;;23.50;99.90;;;;;;4884226;29;20123;-57
2023/09/08 08:32:13;;;;;;;4.97;4.38;;;23.50;99.90;;;;;;4905230;29;20060;-57
2023/09/08 08:34:40;;;;;;;7.97;4.18;;;23.50;99.90;;;;;;4907396;29;20051;-54
2023/09/08 08:37:06;;;;;;;7.20;4.63;;;23.60;99.90;;;;;;4908831;29;20298;-57
2023/09/08 08:39:33;;;;;;;6.82;3.83;;;23.60;99.90;;;;;;4911144;29;20098;-58
2023/09/08 08:42:07;;;;;;;7.22;4.15;;;23.70;99.90;;;;;;4908328;29;20127;-59
2023/09/08 08:44:34;;;;;;;6.65;4.25;;;23.80;99.90;;;;;;4903729;29;20107;-57
2023/09/08 08:47:02;;;;;;;8.45;3.88;;;23.90;99.90;;;;;;4909717;29;20562;-57
2023/09/08 08:49:31;;;;;;;10.82;4.10;;;23.90;99.90;;;;;;4879642;29;20095;-57
2023/09/08 08:51:58;;;;;;;12.48;4.30;;;24.00;99.90;;;;;;4880144;29;20080;-57
2023/09/08 08:54:25;;;;;;;7.68;4.47;;;24.00;99.90;;;;;;4889824;29;20040;-57
2023/09/08 08:56:51;;;;;;;5.63;3.75;;;24.10;99.90;;;;;;4902929;29;20127;-56
2023/09/08 08:59:18;;;;;;;10.27;4.55;;;24.20;99.90;;;;;;4891922;29;20050;-55
2023/09/08 09:01:45;;;;;;;8.10;4.00;;;24.30;99.90;;;;;;4890464;29;20048;-57
2023/09/08 09:04:12;;;;;;;7.43;4.30;;;24.40;99.90;;;;;;4902037;29;20317;-57
2023/09/08 09:06:39;;;;;;;13.75;4.65;;;24.50;99.90;;;;;;4881935;29;20048;-56
2023/09/08 09:09:08;;;;;;;6.30;3.92;;;24.60;99.90;;;;;;4884806;29;20052;-54
2023/09/08 09:11:35;;;;;;;12.73;3.67;;;24.70;99.90;;;;;;4907381;29;20454;-57
2023/09/08 09:14:02;;;;;;;10.63;3.40;;;24.80;99.90;;;;;;4910788;29;20062;-58
2023/09/08 09:16:29;;;;;;;7.28;4.13;;;24.90;99.90;;;;;;4895499;29;20480;-57
2023/09/08 09:18:59;;;;;;;6.93;3.95;;;25.10;99.90;;;;;;4901982;29;20056;-56
2023/09/08 09:21:47;;;;;;;9.52;4.00;;;25.30;99.90;;;;;;4898797;29;20104;-58
2023/09/08 09:24:27;;;;;;;12.60;4.25;;;25.50;99.90;;;;;;4910396;29;20052;-55
2023/09/08 09:26:55;;;;;;;8.95;3.30;;;25.60;99.90;;;;;;4906087;29;20061;-57
2023/09/08 09:29:22;;;;;;;6.05;4.28;;;25.60;99.90;;;;;;4904913;29;20115;-57
2023/09/08 09:31:56;;;;;;;7.75;3.97;;;25.70;99.90;;;;;;4905182;29;20416;-56
2023/09/08 09:34:23;;;;;;;5.93;3.70;;;25.80;99.90;;;;;;4909246;29;20044;-57
2023/09/08 09:36:50;;;;;;;9.90;4.55;;;25.90;99.90;;;;;;4906753;29;20052;-57
2023/09/08 09:39:21;;;;;;;10.18;3.75;;;26.00;99.90;;;;;;4906158;29;20056;-58
2023/09/08 09:41:48;;;;;;;8.55;3.45;;;26.10;99.90;;;;;;4906854;29;20099;-59
2023/09/08 09:44:15;;;;;;;5.00;3.65;;;26.40;99.90;;;;;;4908305;29;20405;-58
2023/09/08 09:46:45;;;;;;;10.27;3.90;;;26.50;99.90;;;;;;4907055;29;20044;-58
2023/09/08 09:49:19;;;;;;;10.82;3.80;;;26.80;99.90;;;;;;4905364;29;20059;-59
2023/09/08 09:51:47;;;;;;;6.55;3.58;;;27.10;99.90;;;;;;4561003;29;10000370;-57
2023/09/08 09:54:14;;;;;;;10.77;3.20;;;27.30;99.90;;;;;;4887289;29;20062;-58
2023/09/08 09:56:41;;;;;;;6.70;3.72;;;27.50;99.90;;;;;;4883069;29;20092;-57
2023/09/08 09:59:12;;;;;;;8.98;3.53;;;27.50;99.90;;;;;;4898513;29;20173;-59
2023/09/08 10:01:40;;;;;;;6.38;3.35;;;27.40;99.90;;;;;;4899368;29;20047;-59
2023/09/08 10:04:08;;;;;;;11.45;4.30;;;27.30;99.90;;;;;;4903264;29;20341;-59
2023/09/08 10:06:35;;;;;;;8.38;3.60;;;27.30;99.90;;;;;;4906514;29;20059;-57
2023/09/08 10:09:05;;;;;;;12.68;3.17;;;27.40;99.90;;;;;;4908199;29;20048;-58
2023/09/08 10:11:41;;;;;;;9.13;3.53;;;27.40;99.90;;;;;;4907270;29;20104;-58
2023/09/08 10:14:11;;;;;;;6.05;3.05;;;27.40;99.90;;;;;;4895379;29;20477;-58
2023/09/08 10:16:39;;;;;;;10.80;3.72;;;27.30;99.90;;;;;;4894386;29;20500;-58
2023/09/08 10:19:08;;;;;;;6.90;3.50;;;27.40;99.90;;;;;;4900642;29;20052;-59
2023/09/08 10:21:58;;;;;;;4.60;3.63;;;27.30;99.90;;;;;;4913827;29;20357;-59
2023/09/08 10:24:26;;;;;;;8.93;3.80;;;27.10;99.90;;;;;;4894268;29;20103;-57
2023/09/08 10:27:08;;;;;;;13.73;4.45;;;27.00;99.90;;;;;;4880444;29;20056;-58
2023/09/08 10:29:35;;;;;;;5.72;3.90;;;27.00;99.90;;;;;;4896707;29;20090;-57
2023/09/08 10:32:02;;;;;;;6.10;3.38;;;27.00;99.90;;;;;;4911653;29;20092;-57
2023/09/08 10:34:30;;;;;;;8.02;3.85;;;27.00;99.90;;;;;;4897033;29;20059;-57
2023/09/08 10:36:57;;;;;;;7.60;3.20;;;27.00;99.90;;;;;;4896610;29;20055;-58
2023/09/08 10:39:41;;;;;;;11.55;3.75;;;27.10;99.90;;;;;;4912466;29;20090;-58
2023/09/08 10:42:18;;;;;;;7.18;4.05;;;27.20;99.90;;;;;;4906866;29;20510;-57
2023/09/08 10:44:49;;;;;;;7.10;3.55;;;27.20;99.90;;;;;;4908039;29;20063;-58
2023/09/08 10:47:26;;;;;;;12.57;3.50;;;27.30;99.90;;;;;;4910606;29;20393;-58
2023/09/08 10:49:57;;;;;;;14.63;4.03;;;27.40;99.90;;;;;;4912206;29;20050;-57
2023/09/08 10:52:26;;;;;;;11.10;4.45;;;27.30;99.90;;;;;;4904333;29;20449;-57
2023/09/08 10:54:55;;;;;;;5.03;3.55;;;27.40;99.90;;;;;;4911378;29;20143;-53
2023/09/08 10:57:24;;;;;;;12.93;4.13;;;27.50;99.90;;;;;;4907572;29;20093;-60
2023/09/08 10:59:55;;;;;;;7.05;3.30;;;27.50;99.90;;;;;;4908165;29;20559;-58
2023/09/08 11:02:41;;;;;;;10.25;3.83;;;27.60;99.90;;;;;;4903707;29;20052;-58
2023/09/08 11:05:10;;;;;;;8.60;3.97;;;27.70;99.90;;;;;;4903793;29;20048;-58
2023/09/08 11:07:37;;;;;;;8.52;3.25;;;27.70;99.90;;;;;;4904812;29;20143;-58
2023/09/08 11:10:06;;;;;;;10.43;3.65;;;27.80;99.90;;;;;;4901050;29;20044;-57
2023/09/08 11:12:33;;;;;;;4.32;3.10;;;27.90;99.90;;;;;;4912870;29;20048;-58
2023/09/08 11:15:01;;;;;;;9.38;3.60;;;27.90;99.90;;;;;;4911086;29;20052;-58
2023/09/08 11:17:28;;;;;;;7.75;3.60;;;27.90;99.90;;;;;;4909874;29;20452;-57
2023/09/08 11:19:55;;;;;;;9.05;3.40;;;27.80;99.90;;;;;;4910699;29;20052;-57
2023/09/08 11:22:25;;;;;;;7.90;3.40;;;27.90;99.90;;;;;;4910655;29;20052;-56
2023/09/08 11:24:52;;;;;;;6.60;3.65;;;27.90;99.90;;;;;;4907770;29;20152;-58
2023/09/08 11:27:21;;;;;;;6.43;3.13;;;27.90;99.90;;;;;;4895945;29;20056;-57
2023/09/08 11:29:47;;;;;;;7.75;3.40;;;28.10;99.90;;;;;;4895358;29;20055;-56
2023/09/08 11:32:14;;;;;;;4.25;3.08;;;28.20;99.90;;;;;;4897092;29;20107;-58
2023/09/08 11:34:41;;;;;;;7.50;3.13;;;28.30;99.90;;;;;;4900851;29;20504;-57
2023/09/08 11:37:15;;;;;;;10.27;3.35;;;28.20;99.90;;;;;;4910390;29;20044;-58
2023/09/08 11:39:44;;;;;;;6.97;3.47;;;28.30;99.90;;;;;;4909224;29;20052;-58
2023/09/08 11:42:15;;;;;;;6.95;3.65;;;28.20;99.90;;;;;;4893956;29;20052;-58
2023/09/08 11:44:42;;;;;;;7.57;3.85;;;28.30;99.90;;;;;;4906253;29;20056;-57
2023/09/08 11:47:10;;;;;;;8.98;3.47;;;28.40;99.90;;;;;;4912703;29;20056;-59
2023/09/08 11:49:37;;;;;;;7.18;3.40;;;28.50;99.90;;;;;;4884821;29;20052;-57
2023/09/08 11:52:04;;;;;;;5.13;3.30;;;28.60;99.90;;;;;;4892440;29;20491;-58
2023/09/08 11:54:32;;;;;;;9.50;3.53;;;28.70;99.90;;;;;;4911541;29;20060;-59
2023/09/08 11:57:00;;;;;;;8.32;4.63;;;28.70;99.90;;;;;;4908436;29;20044;-56
2023/09/08 11:59:33;;;;;;;6.40;3.97;;;28.80;99.90;;;;;;4887698;29;20099;-56
2023/09/08 12:02:00;;;;;;;7.13;3.70;;;28.90;99.90;;;;;;4882004;29;20080;-58
2023/09/08 12:04:27;;;;;;;4.57;3.55;;;28.80;99.90;;;;;;4896027;29;20170;-57
2023/09/08 12:06:57;;;;;;;6.22;2.75;;;28.90;99.90;;;;;;4908761;29;20139;-58
2023/09/08 12:09:23;;;;;;;6.90;3.97;;;28.90;99.90;;;;;;4894271;29;20052;-57
2023/09/08 12:11:50;;;;;;;4.07;3.00;;;29.00;99.90;;;;;;4891325;29;20052;-57
2023/09/08 12:14:17;;;;;;;6.15;3.33;;;29.10;99.90;;;;;;4908681;29;20052;-57
2023/09/08 12:16:44;;;;;;;11.98;3.33;;;29.30;99.70;;;;;;4908010;29;20055;-58
2023/09/08 12:19:43;;;;;;;8.32;3.70;;;29.20;99.90;;;;;;4911070;29;20168;-57
2023/09/08 12:22:12;;;;;;;4.90;3.90;;;29.20;99.10;;;;;;4859592;29;20045;-58
2023/09/08 12:24:51;;;;;;;8.52;3.20;;;29.20;99.90;;;;;;4909656;29;20083;-58
2023/09/08 12:27:18;;;;;;;10.15;3.63;;;29.40;99.50;;;;;;4907522;29;20503;-62
2023/09/08 12:29:54;;;;;;;4.60;3.22;;;29.50;99.80;;;;;;4907903;29;20046;-57
2023/09/08 12:32:21;;;;;;;6.75;3.30;;;29.50;99.20;;;;;;4892646;29;20365;-57
2023/09/08 12:34:48;;;;;;;6.90;3.60;;;29.60;99.70;;;;;;4892880;29;20052;-59
2023/09/08 12:37:18;;;;;;;6.32;3.42;;;29.50;99.20;;;;;;4905916;29;20048;-56
2023/09/08 12:39:45;;;;;;;6.45;3.38;;;29.50;98.70;;;;;;4906749;29;20149;-57
2023/09/08 12:42:12;;;;;;;5.72;3.50;;;29.60;99.30;;;;;;4901360;29;20127;-58
2023/09/08 12:44:40;;;;;;;13.68;4.80;;;29.80;99.40;;;;;;4908597;29;20048;-56
2023/09/08 12:47:09;;;;;;;7.65;3.67;;;29.90;99.10;;;;;;4898728;29;20048;-58
2023/09/08 12:49:36;;;;;;;7.90;3.47;;;30.10;98.70;;;;;;4905700;29;20056;-58
2023/09/08 12:52:03;;;;;;;4.22;3.30;;;30.10;98.80;;;;;;4912265;29;20045;-58